Terminal Aerodrome Forecast
Issued by NWS Sterling, VA

Current Version | Previous Version | Graphics & Text | Print | Product List | Glossary On
Versions: 1 2 3 4 5 6 7 8 9 10 11 12 13 14 15 16 17
000
FTUS41 KLWX 250239 AAA
TAFMRB
TAF AMD
KMRB 250239Z 2503/2524 11006KT P6SM -RA OVC015
     FM250400 07007KT 6SM -RA BR OVC008
     FM250600 06006KT 4SM RA BR OVC004
     FM251200 VRB03KT 4SM -SHRA BR OVC004
     FM251500 18004KT P6SM OVC012
     FM251800 VRB03KT P6SM -SHRA OVC035=

USA.gov is the U.S. government's official web portal to all federal, state and local government web resources and services.